sensor_id;sensor_type;location;lat;lon;timestamp;pressure;altitude;pressure_sealevel;temperature;humidity
64698;BME280;51124;53.394;-6.294;2023-05-03T00:00:52;101752.46;;;22.18;11.39
64698;BME280;51124;53.394;-6.294;2023-05-03T00:03:17;101751.85;;;21.51;11.76
64698;BME280;51124;53.394;-6.294;2023-05-03T00:05:45;101750.89;;;21.93;11.63
64698;BME280;51124;53.394;-6.294;2023-05-03T00:08:13;101744.52;;;21.55;11.88
64698;BME280;51124;53.394;-6.294;2023-05-03T00:10:40;101748.16;;;21.71;11.76
64698;BME280;51124;53.394;-6.294;2023-05-03T00:13:07;101747.99;;;21.01;11.96
64698;BME280;51124;53.394;-6.294;2023-05-03T00:15:35;101754.55;;;22.13;11.89
64698;BME280;51124;53.394;-6.294;2023-05-03T00:18:02;101753.39;;;21.65;11.90
64698;BME280;51124;53.394;-6.294;2023-05-03T00:20:30;101753.63;;;21.55;11.92
64698;BME280;51124;53.394;-6.294;2023-05-03T00:22:57;101752.40;;;20.81;12.10
64698;BME280;51124;53.394;-6.294;2023-05-03T00:25:24;101752.16;;;21.05;12.13
64698;BME280;51124;53.394;-6.294;2023-05-03T00:27:52;101751.74;;;21.27;12.06
64698;BME280;51124;53.394;-6.294;2023-05-03T00:30:19;101751.00;;;20.72;12.06
64698;BME280;51124;53.394;-6.294;2023-05-03T00:32:47;101750.83;;;20.94;12.18
64698;BME280;51124;53.394;-6.294;2023-05-03T00:35:14;101754.54;;;21.29;12.22
64698;BME280;51124;53.394;-6.294;2023-05-03T00:37:42;101755.32;;;21.51;12.16
64698;BME280;51124;53.394;-6.294;2023-05-03T00:40:10;101757.22;;;21.20;12.17
64698;BME280;51124;53.394;-6.294;2023-05-03T00:42:38;101760.92;;;20.93;12.12
64698;BME280;51124;53.394;-6.294;2023-05-03T00:45:06;101758.63;;;19.43;12.07
64698;BME280;51124;53.394;-6.294;2023-05-03T00:47:34;101753.98;;;18.39;11.87
64698;BME280;51124;53.394;-6.294;2023-05-03T00:50:02;101749.80;;;19.50;11.22
64698;BME280;51124;53.394;-6.294;2023-05-03T00:52:30;101744.44;;;19.66;11.14
64698;BME280;51124;53.394;-6.294;2023-05-03T00:54:58;101745.31;;;18.07;11.13
64698;BME280;51124;53.394;-6.294;2023-05-03T00:57:27;101745.39;;;19.49;10.72
64698;BME280;51124;53.394;-6.294;2023-05-03T00:59:56;101741.39;;;19.22;10.55
64698;BME280;51124;53.394;-6.294;2023-05-03T01:02:24;101737.09;;;18.24;10.83
64698;BME280;51124;53.394;-6.294;2023-05-03T01:04:51;101731.16;;;19.11;10.35
64698;BME280;51124;53.394;-6.294;2023-05-03T01:07:27;101726.02;;;19.24;10.17
64698;BME280;51124;53.394;-6.294;2023-05-03T01:09:57;101729.44;;;19.04;10.12
64698;BME280;51124;53.394;-6.294;2023-05-03T01:12:25;101726.52;;;18.68;10.35
64698;BME280;51124;53.394;-6.294;2023-05-03T01:14:54;101723.89;;;18.34;10.23
64698;BME280;51124;53.394;-6.294;2023-05-03T01:17:15;101727.34;;;18.83;10.24
64698;BME280;51124;53.394;-6.294;2023-05-03T01:19:46;101726.14;;;19.59;9.92
64698;BME280;51124;53.394;-6.294;2023-05-03T01:22:20;101721.33;;;18.90;9.99
64698;BME280;51124;53.394;-6.294;2023-05-03T01:24:56;101717.51;;;19.23;9.85
64698;BME280;51124;53.394;-6.294;2023-05-03T01:27:15;101716.51;;;19.30;9.78
64698;BME280;51124;53.394;-6.294;2023-05-03T01:29:43;101714.57;;;19.16;9.84
64698;BME280;51124;53.394;-6.294;2023-05-03T01:32:14;101716.09;;;18.89;9.87
64698;BME280;51124;53.394;-6.294;2023-05-03T01:34:49;101709.63;;;18.39;10.06
64698;BME280;51124;53.394;-6.294;2023-05-03T01:37:17;101711.35;;;19.06;9.80
64698;BME280;51124;53.394;-6.294;2023-05-03T01:39:50;101712.06;;;18.61;10.01
64698;BME280;51124;53.394;-6.294;2023-05-03T01:42:20;101707.66;;;18.60;9.81
64698;BME280;51124;53.394;-6.294;2023-05-03T01:44:49;101707.38;;;19.86;9.59
64698;BME280;51124;53.394;-6.294;2023-05-03T01:47:16;101707.67;;;19.70;9.72
64698;BME280;51124;53.394;-6.294;2023-05-03T01:49:44;101704.26;;;18.62;9.91
64698;BME280;51124;53.394;-6.294;2023-05-03T01:52:11;101701.50;;;18.52;9.90
64698;BME280;51124;53.394;-6.294;2023-05-03T01:54:38;101699.04;;;19.79;9.61
64698;BME280;51124;53.394;-6.294;2023-05-03T01:57:05;101700.43;;;18.86;9.75
64698;BME280;51124;53.394;-6.294;2023-05-03T01:59:33;101700.56;;;18.87;9.74
64698;BME280;51124;53.394;-6.294;2023-05-03T02:02:00;101694.43;;;19.46;9.75
64698;BME280;51124;53.394;-6.294;2023-05-03T02:04:27;101693.17;;;19.19;9.77
64698;BME280;51124;53.394;-6.294;2023-05-03T02:06:55;101685.13;;;18.48;9.74
64698;BME280;51124;53.394;-6.294;2023-05-03T02:09:22;101685.63;;;18.80;9.62
64698;BME280;51124;53.394;-6.294;2023-05-03T02:11:50;101685.10;;;18.58;9.68
64698;BME280;51124;53.394;-6.294;2023-05-03T02:14:18;101686.33;;;19.59;9.63
64698;BME280;51124;53.394;-6.294;2023-05-03T02:16:45;101686.57;;;18.89;9.69
64698;BME280;51124;53.394;-6.294;2023-05-03T02:19:12;101683.98;;;19.12;9.74
64698;BME280;51124;53.394;-6.294;2023-05-03T02:21:39;101685.64;;;20.18;9.63
64698;BME280;51124;53.394;-6.294;2023-05-03T02:24:07;101682.95;;;19.82;9.56
64698;BME280;51124;53.394;-6.294;2023-05-03T02:26:34;101681.80;;;19.10;9.76
64698;BME280;51124;53.394;-6.294;2023-05-03T02:29:01;101680.40;;;19.94;9.61
64698;BME280;51124;53.394;-6.294;2023-05-03T02:31:29;101674.58;;;18.85;9.69
64698;BME280;51124;53.394;-6.294;2023-05-03T02:33:56;101677.67;;;19.97;9.73
64698;BME280;51124;53.394;-6.294;2023-05-03T02:36:23;101678.41;;;19.18;9.84
64698;BME280;51124;53.394;-6.294;2023-05-03T02:38:50;101677.72;;;18.88;9.90
64698;BME280;51124;53.394;-6.294;2023-05-03T02:41:18;101680.70;;;18.74;9.83
64698;BME280;51124;53.394;-6.294;2023-05-03T02:43:45;101678.78;;;19.61;9.48
64698;BME280;51124;53.394;-6.294;2023-05-03T02:46:12;101678.28;;;19.41;9.50
64698;BME280;51124;53.394;-6.294;2023-05-03T02:48:40;101678.60;;;19.53;9.64
64698;BME280;51124;53.394;-6.294;2023-05-03T02:51:07;101677.74;;;20.09;9.70
64698;BME280;51124;53.394;-6.294;2023-05-03T02:53:34;101681.38;;;21.38;10.13
64698;BME280;51124;53.394;-6.294;2023-05-03T02:56:02;101679.75;;;20.74;10.53
64698;BME280;51124;53.394;-6.294;2023-05-03T02:58:29;101680.92;;;19.41;10.63
64698;BME280;51124;53.394;-6.294;2023-05-03T03:00:56;101679.77;;;20.33;10.43
64698;BME280;51124;53.394;-6.294;2023-05-03T03:03:24;101680.85;;;22.11;10.92
64698;BME280;51124;53.394;-6.294;2023-05-03T03:05:52;101681.85;;;22.11;11.19
64698;BME280;51124;53.394;-6.294;2023-05-03T03:08:19;101678.60;;;21.13;11.38
64698;BME280;51124;53.394;-6.294;2023-05-03T03:10:46;101677.33;;;21.17;11.63
64698;BME280;51124;53.394;-6.294;2023-05-03T03:13:17;101676.50;;;21.05;11.69
64698;BME280;51124;53.394;-6.294;2023-05-03T03:15:45;101672.78;;;20.97;11.85
64698;BME280;51124;53.394;-6.294;2023-05-03T03:18:13;101671.16;;;21.07;11.85
64698;BME280;51124;53.394;-6.294;2023-05-03T03:20:40;101677.06;;;20.34;12.05
64698;BME280;51124;53.394;-6.294;2023-05-03T03:23:07;101674.51;;;21.07;12.09
64698;BME280;51124;53.394;-6.294;2023-05-03T03:25:35;101665.44;;;21.51;11.88
64698;BME280;51124;53.394;-6.294;2023-05-03T03:28:02;101667.86;;;21.19;11.97
64698;BME280;51124;53.394;-6.294;2023-05-03T03:30:30;101672.19;;;20.58;12.05
64698;BME280;51124;53.394;-6.294;2023-05-03T03:32:57;101672.59;;;20.63;12.20
64698;BME280;51124;53.394;-6.294;2023-05-03T03:35:25;101671.20;;;20.89;12.08
64698;BME280;51124;53.394;-6.294;2023-05-03T03:37:53;101667.19;;;21.38;11.99
64698;BME280;51124;53.394;-6.294;2023-05-03T03:40:20;101668.58;;;20.19;12.32
64698;BME280;51124;53.394;-6.294;2023-05-03T03:42:47;101668.13;;;20.66;12.13
64698;BME280;51124;53.394;-6.294;2023-05-03T03:45:15;101666.17;;;21.26;12.05
64698;BME280;51124;53.394;-6.294;2023-05-03T03:47:43;101663.66;;;20.50;12.20
64698;BME280;51124;53.394;-6.294;2023-05-03T03:50:10;101656.68;;;20.85;12.14
64698;BME280;51124;53.394;-6.294;2023-05-03T03:52:38;101659.07;;;19.49;12.28
64698;BME280;51124;53.394;-6.294;2023-05-03T03:55:06;101657.41;;;18.95;11.73
64698;BME280;51124;53.394;-6.294;2023-05-03T03:57:33;101652.53;;;19.31;11.14
64698;BME280;51124;53.394;-6.294;2023-05-03T04:00:01;101652.59;;;18.63;11.00
64698;BME280;51124;53.394;-6.294;2023-05-03T04:02:28;101650.06;;;18.78;10.91
64698;BME280;51124;53.394;-6.294;2023-05-03T04:04:55;101648.94;;;18.21;10.89
64698;BME280;51124;53.394;-6.294;2023-05-03T04:07:23;101647.13;;;18.93;10.54
64698;BME280;51124;53.394;-6.294;2023-05-03T04:09:50;101646.37;;;18.82;10.43
64698;BME280;51124;53.394;-6.294;2023-05-03T04:12:18;101645.36;;;18.80;10.33
64698;BME280;51124;53.394;-6.294;2023-05-03T04:14:45;101645.42;;;18.66;10.27
64698;BME280;51124;53.394;-6.294;2023-05-03T04:17:12;101645.22;;;18.58;10.27
64698;BME280;51124;53.394;-6.294;2023-05-03T04:19:39;101642.91;;;18.68;10.21
64698;BME280;51124;53.394;-6.294;2023-05-03T04:22:07;101645.76;;;18.49;10.12
64698;BME280;51124;53.394;-6.294;2023-05-03T04:24:34;101647.22;;;18.51;10.09
64698;BME280;51124;53.394;-6.294;2023-05-03T04:27:01;101644.63;;;18.16;10.21
64698;BME280;51124;53.394;-6.294;2023-05-03T04:29:29;101651.95;;;18.40;10.05
64698;BME280;51124;53.394;-6.294;2023-05-03T04:31:56;101652.51;;;18.50;9.88
64698;BME280;51124;53.394;-6.294;2023-05-03T04:34:24;101659.46;;;17.38;10.35
64698;BME280;51124;53.394;-6.294;2023-05-03T04:36:51;101659.00;;;18.02;10.01
64698;BME280;51124;53.394;-6.294;2023-05-03T04:39:18;101661.33;;;19.20;9.80
64698;BME280;51124;53.394;-6.294;2023-05-03T04:41:45;101659.78;;;18.88;9.83
64698;BME280;51124;53.394;-6.294;2023-05-03T04:44:13;101659.47;;;18.43;10.10
64698;BME280;51124;53.394;-6.294;2023-05-03T04:46:40;101654.26;;;18.26;9.86
64698;BME280;51124;53.394;-6.294;2023-05-03T04:49:07;101650.78;;;19.04;9.62
64698;BME280;51124;53.394;-6.294;2023-05-03T04:51:34;101651.90;;;19.21;9.69
64698;BME280;51124;53.394;-6.294;2023-05-03T04:54:02;101653.66;;;19.63;9.57
64698;BME280;51124;53.394;-6.294;2023-05-03T04:56:29;101657.32;;;18.76;9.82
64698;BME280;51124;53.394;-6.294;2023-05-03T04:58:56;101659.53;;;18.98;9.68
64698;BME280;51124;53.394;-6.294;2023-05-03T05:01:24;101662.74;;;19.24;9.68
64698;BME280;51124;53.394;-6.294;2023-05-03T05:03:52;101656.88;;;18.59;9.87
64698;BME280;51124;53.394;-6.294;2023-05-03T05:06:19;101659.51;;;18.36;9.83
64698;BME280;51124;53.394;-6.294;2023-05-03T05:08:46;101663.97;;;18.68;9.94
64698;BME280;51124;53.394;-6.294;2023-05-03T05:11:14;101659.38;;;18.60;9.70
64698;BME280;51124;53.394;-6.294;2023-05-03T05:13:41;101659.80;;;18.44;9.63
64698;BME280;51124;53.394;-6.294;2023-05-03T05:16:09;101663.96;;;19.49;9.65
64698;BME280;51124;53.394;-6.294;2023-05-03T05:18:36;101663.13;;;18.66;9.57
64698;BME280;51124;53.394;-6.294;2023-05-03T05:21:04;101665.77;;;19.68;9.62
64698;BME280;51124;53.394;-6.294;2023-05-03T05:23:31;101667.79;;;17.99;9.89
64698;BME280;51124;53.394;-6.294;2023-05-03T05:25:58;101671.60;;;18.74;9.63
64698;BME280;51124;53.394;-6.294;2023-05-03T05:28:26;101674.76;;;19.26;9.88
64698;BME280;51124;53.394;-6.294;2023-05-03T05:30:53;101671.05;;;19.26;9.75
64698;BME280;51124;53.394;-6.294;2023-05-03T05:33:20;101673.39;;;18.48;9.93
64698;BME280;51124;53.394;-6.294;2023-05-03T05:35:48;101670.88;;;19.03;9.71
64698;BME280;51124;53.394;-6.294;2023-05-03T05:38:16;101674.02;;;19.13;9.77
64698;BME280;51124;53.394;-6.294;2023-05-03T05:40:43;101675.72;;;19.35;9.69
64698;BME280;51124;53.394;-6.294;2023-05-03T05:43:10;101677.04;;;18.98;9.73
64698;BME280;51124;53.394;-6.294;2023-05-03T05:45:38;101682.60;;;18.48;9.79
64698;BME280;51124;53.394;-6.294;2023-05-03T05:48:06;101684.25;;;19.67;9.45
64698;BME280;51124;53.394;-6.294;2023-05-03T05:50:33;101685.49;;;19.28;9.41
64698;BME280;51124;53.394;-6.294;2023-05-03T05:53:01;101687.35;;;18.62;9.60
64698;BME280;51124;53.394;-6.294;2023-05-03T05:55:28;101688.03;;;19.04;9.64
64698;BME280;51124;53.394;-6.294;2023-05-03T05:57:56;101688.12;;;21.02;9.35
64698;BME280;51124;53.394;-6.294;2023-05-03T06:00:23;101690.81;;;20.76;10.14
64698;BME280;51124;53.394;-6.294;2023-05-03T06:02:51;101695.78;;;21.01;10.31
64698;BME280;51124;53.394;-6.294;2023-05-03T06:05:17;101692.93;;;19.70;10.46
64698;BME280;51124;53.394;-6.294;2023-05-03T06:07:42;101690.08;;;20.83;10.09
64698;BME280;51124;53.394;-6.294;2023-05-03T06:10:08;101692.84;;;22.49;10.48
64698;BME280;51124;53.394;-6.294;2023-05-03T06:12:34;101694.31;;;21.97;11.00
64698;BME280;51124;53.394;-6.294;2023-05-03T06:14:58;101696.60;;;21.84;11.17
64698;BME280;51124;53.394;-6.294;2023-05-03T06:17:31;101693.87;;;21.90;11.35
64698;BME280;51124;53.394;-6.294;2023-05-03T06:20:06;101690.03;;;21.75;11.33
64698;BME280;51124;53.394;-6.294;2023-05-03T06:22:30;101692.77;;;21.43;11.67
64698;BME280;51124;53.394;-6.294;2023-05-03T06:25:04;101692.76;;;21.51;11.67
64698;BME280;51124;53.394;-6.294;2023-05-03T06:27:38;101686.62;;;20.95;11.61
64698;BME280;51124;53.394;-6.294;2023-05-03T06:30:12;101686.70;;;21.57;11.46
64698;BME280;51124;53.394;-6.294;2023-05-03T06:32:46;101689.80;;;21.67;11.55
64698;BME280;51124;53.394;-6.294;2023-05-03T06:35:20;101683.94;;;22.34;11.37
64698;BME280;51124;53.394;-6.294;2023-05-03T06:37:53;101683.36;;;21.70;11.63
64698;BME280;51124;53.394;-6.294;2023-05-03T06:40:27;101682.97;;;21.39;11.59
64698;BME280;51124;53.394;-6.294;2023-05-03T06:43:00;101679.11;;;21.86;11.53
64698;BME280;51124;53.394;-6.294;2023-05-03T06:45:34;101681.09;;;22.18;11.41
64698;BME280;51124;53.394;-6.294;2023-05-03T06:48:08;101676.61;;;22.32;11.37
64698;BME280;51124;53.394;-6.294;2023-05-03T06:50:42;101676.19;;;23.01;11.37
64698;BME280;51124;53.394;-6.294;2023-05-03T06:53:15;101680.21;;;21.75;11.45
64698;BME280;51124;53.394;-6.294;2023-05-03T06:55:49;101684.35;;;22.16;11.42
64698;BME280;51124;53.394;-6.294;2023-05-03T06:58:23;101687.19;;;19.15;12.43
64698;BME280;51124;53.394;-6.294;2023-05-03T07:00:58;101684.11;;;19.16;12.15
64698;BME280;51124;53.394;-6.294;2023-05-03T07:03:22;101687.24;;;17.91;12.15
64698;BME280;51124;53.394;-6.294;2023-05-03T07:05:56;101678.94;;;17.99;11.65
64698;BME280;51124;53.394;-6.294;2023-05-03T07:08:30;101680.40;;;18.29;11.51
64698;BME280;51124;53.394;-6.294;2023-05-03T07:11:03;101682.97;;;18.75;11.26
64698;BME280;51124;53.394;-6.294;2023-05-03T07:13:37;101678.61;;;18.95;11.02
64698;BME280;51124;53.394;-6.294;2023-05-03T07:16:10;101683.98;;;18.49;10.92
64698;BME280;51124;53.394;-6.294;2023-05-03T07:18:43;101682.96;;;18.64;10.70
64698;BME280;51124;53.394;-6.294;2023-05-03T07:21:17;101685.29;;;18.31;10.69
64698;BME280;51124;53.394;-6.294;2023-05-03T07:23:50;101684.07;;;19.72;10.47
64698;BME280;51124;53.394;-6.294;2023-05-03T07:26:24;101680.10;;;20.12;10.11
64698;BME280;51124;53.394;-6.294;2023-05-03T07:28:57;101680.83;;;20.61;9.98
64698;BME280;51124;53.394;-6.294;2023-05-03T07:31:31;101683.37;;;20.39;10.10
64698;BME280;51124;53.394;-6.294;2023-05-03T07:34:06;101679.35;;;21.89;9.87
64698;BME280;51124;53.394;-6.294;2023-05-03T07:36:39;101671.64;;;20.46;10.04
64698;BME280;51124;53.394;-6.294;2023-05-03T07:39:13;101674.12;;;20.99;9.71
64698;BME280;51124;53.394;-6.294;2023-05-03T07:41:46;101667.22;;;21.02;9.67
64698;BME280;51124;53.394;-6.294;2023-05-03T07:44:21;101662.05;;;21.47;9.52
64698;BME280;51124;53.394;-6.294;2023-05-03T07:46:55;101663.66;;;21.43;9.47
64698;BME280;51124;53.394;-6.294;2023-05-03T07:49:28;101665.29;;;21.88;9.38
64698;BME280;51124;53.394;-6.294;2023-05-03T07:52:26;101661.89;;;21.33;9.31
64698;BME280;51124;53.394;-6.294;2023-05-03T07:54:28;101661.55;;;21.78;9.38
64698;BME280;51124;53.394;-6.294;2023-05-03T07:57:02;101670.73;;;19.77;9.86
64698;BME280;51124;53.394;-6.294;2023-05-03T07:59:37;101663.45;;;21.26;9.16
64698;BME280;51124;53.394;-6.294;2023-05-03T08:02:01;101671.43;;;19.16;9.95
64698;BME280;51124;53.394;-6.294;2023-05-03T08:04:35;101667.54;;;21.11;9.27
64698;BME280;51124;53.394;-6.294;2023-05-03T08:07:10;101671.15;;;21.19;9.14
64698;BME280;51124;53.394;-6.294;2023-05-03T08:09:35;101677.65;;;21.12;9.11
64698;BME280;51124;53.394;-6.294;2023-05-03T08:12:00;101676.06;;;22.10;9.01
64698;BME280;51124;53.394;-6.294;2023-05-03T08:14:33;101680.62;;;21.05;9.05
64698;BME280;51124;53.394;-6.294;2023-05-03T08:17:07;101672.76;;;21.51;9.08
64698;BME280;51124;53.394;-6.294;2023-05-03T08:19:40;101674.00;;;20.96;9.35
64698;BME280;51124;53.394;-6.294;2023-05-03T08:22:14;101669.88;;;21.55;9.15
64698;BME280;51124;53.394;-6.294;2023-05-03T08:24:49;101671.70;;;21.15;9.16
64698;BME280;51124;53.394;-6.294;2023-05-03T08:27:22;101668.07;;;21.53;8.97
64698;BME280;51124;53.394;-6.294;2023-05-03T08:29:58;101665.12;;;22.05;8.86
64698;BME280;51124;53.394;-6.294;2023-05-03T08:32:21;101664.84;;;21.95;9.10
64698;BME280;51124;53.394;-6.294;2023-05-03T08:34:55;101666.20;;;21.31;9.05
64698;BME280;51124;53.394;-6.294;2023-05-03T08:37:28;101665.57;;;22.56;8.86
64698;BME280;51124;53.394;-6.294;2023-05-03T08:40:02;101668.14;;;22.84;8.88
64698;BME280;51124;53.394;-6.294;2023-05-03T08:42:38;101663.33;;;22.53;9.04
64698;BME280;51124;53.394;-6.294;2023-05-03T08:45:02;101660.15;;;22.25;8.89
64698;BME280;51124;53.394;-6.294;2023-05-03T08:47:36;101656.77;;;22.24;8.88
64698;BME280;51124;53.394;-6.294;2023-05-03T08:50:11;101660.60;;;21.84;8.88
64698;BME280;51124;53.394;-6.294;2023-05-03T08:52:44;101660.80;;;22.25;8.88
64698;BME280;51124;53.394;-6.294;2023-05-03T08:55:18;101657.92;;;21.48;8.85
64698;BME280;51124;53.394;-6.294;2023-05-03T08:57:52;101652.63;;;22.05;8.81
64698;BME280;51124;53.394;-6.294;2023-05-03T09:00:27;101654.68;;;22.18;8.82
64698;BME280;51124;53.394;-6.294;2023-05-03T09:03:03;101651.51;;;22.36;8.73
64698;BME280;51124;53.394;-6.294;2023-05-03T09:05:32;101646.37;;;22.22;8.69
64698;BME280;51124;53.394;-6.294;2023-05-03T09:08:02;101645.97;;;22.31;8.75
64698;BME280;51124;53.394;-6.294;2023-05-03T09:10:25;101647.61;;;22.81;8.64
64698;BME280;51124;53.394;-6.294;2023-05-03T09:13:00;101647.24;;;24.69;9.02
64698;BME280;51124;53.394;-6.294;2023-05-03T09:15:34;101657.93;;;23.77;9.58
64698;BME280;51124;53.394;-6.294;2023-05-03T09:18:11;101650.61;;;23.57;9.68
64698;BME280;51124;53.394;-6.294;2023-05-03T09:20:35;101651.84;;;23.29;9.51
64698;BME280;51124;53.394;-6.294;2023-05-03T09:23:09;101647.55;;;26.10;9.42
64698;BME280;51124;53.394;-6.294;2023-05-03T09:25:44;101645.22;;;24.80;9.93
64698;BME280;51124;53.394;-6.294;2023-05-03T09:28:19;101641.14;;;24.55;10.27
64698;BME280;51124;53.394;-6.294;2023-05-03T09:31:05;101638.58;;;25.14;10.22
64698;BME280;51124;53.394;-6.294;2023-05-03T09:33:27;101643.51;;;25.33;10.50
64698;BME280;51124;53.394;-6.294;2023-05-03T09:35:56;101648.49;;;24.94;10.49
64698;BME280;51124;53.394;-6.294;2023-05-03T09:38:26;101644.10;;;24.94;10.53
64698;BME280;51124;53.394;-6.294;2023-05-03T09:40:54;101645.64;;;24.65;10.54
64698;BME280;51124;53.394;-6.294;2023-05-03T09:43:20;101637.88;;;24.76;10.77
64698;BME280;51124;53.394;-6.294;2023-05-03T09:45:45;101641.97;;;24.71;10.72
64698;BME280;51124;53.394;-6.294;2023-05-03T09:48:09;101638.60;;;24.84;10.85
64698;BME280;51124;53.394;-6.294;2023-05-03T09:50:45;101638.57;;;24.77;10.82
64698;BME280;51124;53.394;-6.294;2023-05-03T09:53:09;101638.36;;;25.23;10.78
64698;BME280;51124;53.394;-6.294;2023-05-03T09:55:43;101635.12;;;25.06;10.80
64698;BME280;51124;53.394;-6.294;2023-05-03T09:58:17;101633.30;;;24.53;10.83
64698;BME280;51124;53.394;-6.294;2023-05-03T10:00:52;101634.24;;;24.82;10.90
64698;BME280;51124;53.394;-6.294;2023-05-03T10:03:31;101641.48;;;24.89;10.74
64698;BME280;51124;53.394;-6.294;2023-05-03T10:05:57;101646.07;;;24.49;10.95
64698;BME280;51124;53.394;-6.294;2023-05-03T10:08:27;101648.69;;;24.66;10.94
64698;BME280;51124;53.394;-6.294;2023-05-03T10:10:54;101646.61;;;24.14;11.01
64698;BME280;51124;53.394;-6.294;2023-05-03T10:13:28;101650.83;;;24.05;11.03
64698;BME280;51124;53.394;-6.294;2023-05-03T10:16:05;101648.00;;;23.12;10.68
64698;BME280;51124;53.394;-6.294;2023-05-03T10:18:32;101650.78;;;23.78;10.34
64698;BME280;51124;53.394;-6.294;2023-05-03T10:21:01;101650.76;;;22.27;10.25
64698;BME280;51124;53.394;-6.294;2023-05-03T10:23:26;101652.11;;;23.27;9.93
64698;BME280;51124;53.394;-6.294;2023-05-03T10:26:15;101650.26;;;23.61;9.75
64698;BME280;51124;53.394;-6.294;2023-05-03T10:28:28;101652.44;;;23.25;9.77
64698;BME280;51124;53.394;-6.294;2023-05-03T10:31:02;101646.30;;;23.63;9.46
64698;BME280;51124;53.394;-6.294;2023-05-03T10:33:35;101644.44;;;22.94;9.37
64698;BME280;51124;53.394;-6.294;2023-05-03T10:36:12;101643.24;;;24.37;8.94
64698;BME280;51124;53.394;-6.294;2023-05-03T10:38:36;101640.33;;;23.63;9.16
64698;BME280;51124;53.394;-6.294;2023-05-03T10:41:12;101635.42;;;24.23;9.00
64698;BME280;51124;53.394;-6.294;2023-05-03T10:43:43;101633.17;;;23.44;9.03
64698;BME280;51124;53.394;-6.294;2023-05-03T10:46:31;101635.72;;;23.77;8.95
64698;BME280;51124;53.394;-6.294;2023-05-03T10:48:37;101628.94;;;23.21;8.98
64698;BME280;51124;53.394;-6.294;2023-05-03T10:51:32;101626.18;;;23.68;8.88
64698;BME280;51124;53.394;-6.294;2023-05-03T10:53:39;101628.88;;;23.52;8.94
64698;BME280;51124;53.394;-6.294;2023-05-03T10:56:06;101629.40;;;23.21;8.88
64698;BME280;51124;53.394;-6.294;2023-05-03T10:58:35;101622.79;;;23.84;8.89
64698;BME280;51124;53.394;-6.294;2023-05-03T11:01:02;101629.46;;;23.21;8.82
64698;BME280;51124;53.394;-6.294;2023-05-03T11:03:37;101625.29;;;23.61;8.94
64698;BME280;51124;53.394;-6.294;2023-05-03T11:05:55;101626.13;;;24.93;8.54
64698;BME280;51124;53.394;-6.294;2023-05-03T11:08:19;101621.69;;;23.86;8.66
64698;BME280;51124;53.394;-6.294;2023-05-03T11:10:58;101624.70;;;25.15;8.24
64698;BME280;51124;53.394;-6.294;2023-05-03T11:13:22;101614.57;;;24.28;8.55
64698;BME280;51124;53.394;-6.294;2023-05-03T11:15:55;101617.40;;;23.78;8.52
64698;BME280;51124;53.394;-6.294;2023-05-03T11:18:29;101620.58;;;24.55;8.67
64698;BME280;51124;53.394;-6.294;2023-05-03T11:21:04;101617.24;;;24.27;8.55
64698;BME280;51124;53.394;-6.294;2023-05-03T11:23:42;101618.95;;;24.70;8.46
64698;BME280;51124;53.394;-6.294;2023-05-03T11:26:07;101614.75;;;24.54;8.38
64698;BME280;51124;53.394;-6.294;2023-05-03T11:28:42;101609.49;;;24.19;8.64
64698;BME280;51124;53.394;-6.294;2023-05-03T11:31:15;101609.25;;;24.59;8.77
64698;BME280;51124;53.394;-6.294;2023-05-03T11:33:49;101599.39;;;23.99;8.66
64698;BME280;51124;53.394;-6.294;2023-05-03T11:36:22;101598.00;;;23.94;8.52
64698;BME280;51124;53.394;-6.294;2023-05-03T11:38:56;101597.61;;;24.18;8.46
64698;BME280;51124;53.394;-6.294;2023-05-03T11:41:29;101602.11;;;24.54;8.39
64698;BME280;51124;53.394;-6.294;2023-05-03T11:44:03;101600.61;;;24.67;8.32
64698;BME280;51124;53.394;-6.294;2023-05-03T11:46:37;101603.17;;;23.76;8.25
64698;BME280;51124;53.394;-6.294;2023-05-03T11:49:16;101606.48;;;24.66;8.13
64698;BME280;51124;53.394;-6.294;2023-05-03T11:51:39;101604.37;;;25.01;7.96
64698;BME280;51124;53.394;-6.294;2023-05-03T11:54:13;101597.82;;;24.85;7.79
64698;BME280;51124;53.394;-6.294;2023-05-03T11:56:46;101604.45;;;25.02;7.96
64698;BME280;51124;53.394;-6.294;2023-05-03T11:59:20;101594.39;;;25.10;7.87
64698;BME280;51124;53.394;-6.294;2023-05-03T12:01:55;101590.12;;;24.48;7.81
64698;BME280;51124;53.394;-6.294;2023-05-03T12:04:29;101586.86;;;24.21;7.88
64698;BME280;51124;53.394;-6.294;2023-05-03T12:07:04;101589.57;;;24.60;7.77
64698;BME280;51124;53.394;-6.294;2023-05-03T12:09:40;101582.19;;;25.73;7.42
64698;BME280;51124;53.394;-6.294;2023-05-03T12:12:06;101577.54;;;25.32;7.56
64698;BME280;51124;53.394;-6.294;2023-05-03T12:14:54;101573.03;;;25.07;7.60
64698;BME280;51124;53.394;-6.294;2023-05-03T12:16:57;101574.19;;;24.68;7.64
64698;BME280;51124;53.394;-6.294;2023-05-03T12:19:31;101573.84;;;25.59;7.36
64698;BME280;51124;53.394;-6.294;2023-05-03T12:22:04;101571.35;;;25.71;7.40
64698;BME280;51124;53.394;-6.294;2023-05-03T12:24:31;101575.12;;;24.60;7.55
64698;BME280;51124;53.394;-6.294;2023-05-03T12:27:06;101572.15;;;25.45;7.42
64698;BME280;51124;53.394;-6.294;2023-05-03T12:29:31;101572.92;;;27.83;7.65
64698;BME280;51124;53.394;-6.294;2023-05-03T12:31:57;101571.27;;;27.10;8.13
64698;BME280;51124;53.394;-6.294;2023-05-03T12:34:22;101565.26;;;27.63;8.07
64698;BME280;51124;53.394;-6.294;2023-05-03T12:36:46;101562.50;;;27.27;7.76
64698;BME280;51124;53.394;-6.294;2023-05-03T12:39:19;101556.06;;;27.59;7.69
64698;BME280;51124;53.394;-6.294;2023-05-03T12:41:52;101554.18;;;29.92;7.60
64698;BME280;51124;53.394;-6.294;2023-05-03T12:44:26;101547.98;;;29.53;7.61
64698;BME280;51124;53.394;-6.294;2023-05-03T12:46:59;101550.63;;;29.66;7.94
64698;BME280;51124;53.394;-6.294;2023-05-03T12:49:33;101548.76;;;28.37;8.45
64698;BME280;51124;53.394;-6.294;2023-05-03T12:52:13;101547.44;;;28.08;8.67
64698;BME280;51124;53.394;-6.294;2023-05-03T12:54:39;101546.30;;;26.61;9.38
64698;BME280;51124;53.394;-6.294;2023-05-03T12:57:02;101553.19;;;27.10;9.44